createdAt,value
2018-07-20T00:03:51.185Z,50.80
2018-07-20T00:08:53.673Z,51.20
2018-07-20T00:13:56.174Z,51.30
2018-07-20T00:18:58.662Z,51.30
2018-07-20T00:24:01.150Z,51.60
2018-07-20T00:29:04.403Z,51.80
2018-07-20T00:34:06.902Z,51.80
2018-07-20T00:39:09.393Z,51.80
2018-07-20T00:44:11.877Z,52.10
2018-07-20T00:49:14.362Z,51.80
2018-07-20T00:54:16.841Z,52.40
2018-07-20T00:59:19.329Z,52.40
2018-07-20T01:04:21.853Z,52.50
2018-07-20T01:09:24.317Z,52.90
2018-07-20T01:14:26.801Z,52.90
2018-07-20T01:19:29.280Z,53.20
2018-07-20T01:24:32.552Z,53.30
2018-07-20T01:29:35.043Z,53.30
2018-07-20T01:34:37.526Z,54.30
2018-07-20T01:39:40.038Z,53.90
2018-07-20T01:44:42.529Z,54.00
2018-07-20T01:49:45.030Z,54.20
2018-07-20T01:54:47.500Z,54.40
2018-07-20T01:59:49.988Z,54.60
2018-07-20T02:04:52.502Z,54.60
2018-07-20T02:09:54.969Z,55.20
2018-07-20T02:14:57.481Z,55.00
2018-07-20T02:19:59.937Z,55.10
2018-07-20T02:25:02.440Z,55.30
2018-07-20T02:30:04.923Z,55.10
2018-07-20T02:35:07.476Z,55.10
2018-07-20T02:40:09.938Z,55.50
2018-07-20T02:45:12.459Z,55.50
2018-07-20T02:50:14.942Z,55.30
2018-07-20T02:55:17.449Z,55.70
2018-07-20T03:00:19.934Z,55.70
2018-07-20T03:05:22.437Z,55.90
2018-07-20T03:10:24.926Z,55.90
2018-07-20T03:15:27.424Z,56.10
2018-07-20T03:20:29.913Z,56.50
2018-07-20T03:25:32.391Z,56.60
2018-07-20T03:30:34.882Z,56.40
2018-07-20T03:35:37.369Z,56.70
2018-07-20T03:40:39.874Z,56.90
2018-07-20T03:45:42.361Z,57.10
2018-07-20T03:50:44.851Z,57.30
2018-07-20T03:55:47.338Z,57.10
2018-07-20T04:00:49.820Z,57.40
2018-07-20T04:05:52.309Z,57.70
2018-07-20T04:10:54.788Z,57.60
2018-07-20T04:15:57.285Z,57.90
2018-07-20T04:20:59.773Z,58.20
2018-07-20T04:26:02.269Z,58.20
2018-07-20T04:31:04.752Z,58.60
2018-07-20T04:36:07.281Z,58.40
2018-07-20T04:41:09.771Z,58.60
2018-07-20T04:46:12.246Z,58.60
2018-07-20T04:51:14.978Z,58.70
2018-07-20T04:56:17.461Z,58.70
2018-07-20T05:01:19.942Z,58.90
2018-07-20T05:06:22.441Z,59.10
2018-07-20T05:11:24.969Z,59.10
2018-07-20T05:16:27.490Z,59.20
2018-07-20T05:21:29.992Z,59.20
2018-07-20T05:26:32.481Z,59.20
2018-07-20T05:31:34.974Z,59.20
2018-07-20T05:36:37.464Z,59.60
2018-07-20T05:41:39.962Z,58.40
2018-07-20T05:46:42.442Z,58.50
2018-07-20T05:51:44.935Z,59.30
2018-07-20T05:56:47.416Z,59.40
2018-07-20T06:01:49.903Z,59.80
2018-07-20T06:06:52.480Z,59.10
2018-07-20T06:11:54.911Z,58.90
2018-07-20T06:16:57.420Z,58.90
2018-07-20T06:21:59.971Z,58.70
2018-07-20T06:27:03.208Z,56.70
2018-07-20T06:32:05.708Z,56.70
2018-07-20T06:37:08.204Z,56.90
2018-07-20T06:42:10.718Z,55.80
2018-07-20T06:47:13.201Z,55.90
2018-07-20T06:52:15.820Z,55.20
2018-07-20T06:57:18.353Z,54.80
2018-07-20T07:02:20.880Z,54.40
2018-07-20T07:07:23.353Z,54.30
2018-07-20T07:12:25.858Z,53.50
2018-07-20T07:17:28.349Z,53.30
2018-07-20T07:22:30.854Z,52.70
2018-07-20T07:27:33.354Z,52.50
2018-07-20T07:32:35.852Z,51.50
2018-07-20T07:37:38.335Z,51.40
2018-07-20T07:42:40.867Z,50.70
2018-07-20T07:47:43.344Z,50.10
2018-07-20T07:52:45.831Z,50.00
2018-07-20T07:57:48.315Z,49.70
2018-07-20T08:02:50.824Z,49.00
2018-07-20T08:07:53.306Z,48.90
2018-07-20T08:12:55.806Z,48.10
2018-07-20T08:17:58.293Z,47.50
2018-07-20T08:23:00.870Z,47.40
2018-07-20T08:28:03.338Z,47.20
2018-07-20T08:33:05.832Z,47.30
2018-07-20T08:38:08.354Z,47.20
2018-07-20T08:43:10.866Z,46.40
2018-07-20T08:48:13.368Z,46.20
2018-07-20T08:53:15.880Z,45.60
2018-07-20T08:58:18.372Z,45.80
2018-07-20T09:03:20.877Z,45.30
2018-07-20T09:08:23.383Z,44.90
2018-07-20T09:13:25.928Z,44.60
2018-07-20T09:18:28.427Z,44.30
2018-07-20T09:23:30.931Z,44.50
2018-07-20T09:28:33.425Z,44.40
2018-07-20T09:33:35.912Z,44.00
2018-07-20T09:38:38.413Z,42.20
2018-07-20T09:43:40.917Z,42.70
2018-07-20T09:48:43.411Z,42.30
2018-07-20T09:53:45.912Z,41.60
2018-07-20T09:58:48.433Z,41.30
2018-07-20T10:03:50.933Z,41.50
2018-07-20T10:08:53.430Z,40.20
2018-07-20T10:13:55.916Z,38.90
2018-07-20T10:18:58.475Z,39.80
2018-07-20T10:24:00.921Z,39.80
2018-07-20T10:29:04.184Z,39.00
2018-07-20T10:34:06.683Z,39.00
2018-07-20T10:39:09.308Z,38.50
2018-07-20T10:44:11.881Z,37.40
2018-07-20T10:49:14.505Z,37.60
2018-07-20T10:54:17.028Z,37.50
2018-07-20T10:59:19.519Z,35.90
2018-07-20T11:04:22.021Z,37.10
2018-07-20T11:09:24.555Z,38.30
2018-07-20T11:14:27.019Z,35.90
2018-07-20T11:19:29.513Z,37.70
2018-07-20T11:24:32.010Z,37.20
2018-07-20T11:29:34.513Z,36.90
2018-07-20T11:34:37.026Z,36.40
2018-07-20T11:39:39.524Z,36.70
2018-07-20T11:44:42.055Z,36.00
2018-07-20T11:49:44.528Z,35.50
2018-07-20T11:54:47.126Z,34.90
2018-07-20T11:59:49.680Z,34.20
2018-07-20T12:04:52.233Z,33.60
2018-07-20T12:09:54.759Z,34.10
2018-07-20T12:14:57.269Z,33.40
2018-07-20T12:19:59.770Z,34.30
2018-07-20T12:25:02.278Z,32.90
2018-07-20T12:30:04.943Z,33.10
2018-07-20T12:35:07.474Z,32.90
2018-07-20T12:40:10.145Z,33.00
2018-07-20T12:45:12.676Z,32.60
2018-07-20T12:50:15.240Z,33.00
2018-07-20T12:55:17.724Z,32.30
2018-07-20T13:00:20.273Z,32.30
2018-07-20T13:05:22.762Z,32.70
2018-07-20T13:10:25.281Z,33.60
2018-07-20T13:15:27.774Z,33.20
2018-07-20T13:20:30.262Z,33.40
2018-07-20T13:25:32.756Z,32.90
2018-07-20T13:30:35.311Z,34.30
2018-07-20T13:35:37.831Z,33.50
2018-07-20T13:40:40.466Z,33.50
2018-07-20T13:45:42.973Z,33.00
2018-07-20T13:50:45.466Z,33.00
2018-07-20T13:55:47.993Z,32.70
2018-07-20T14:00:50.495Z,32.50
2018-07-20T14:05:53.003Z,32.00
2018-07-20T14:10:56.881Z,33.50
2018-07-20T14:15:59.389Z,33.50
2018-07-20T14:21:01.969Z,33.20
2018-07-20T14:26:05.003Z,33.20
2018-07-20T14:31:07.498Z,33.20
2018-07-20T14:36:10.014Z,33.30
2018-07-20T14:41:12.501Z,32.40
2018-07-20T14:46:15.042Z,33.00
2018-07-20T14:51:18.296Z,33.50
2018-07-20T14:56:20.768Z,33.30
2018-07-20T15:01:23.367Z,33.00
2018-07-20T15:06:25.853Z,32.80
2018-07-20T15:11:28.364Z,32.50
2018-07-20T15:16:30.864Z,32.80
2018-07-20T15:21:33.348Z,32.40
2018-07-20T15:26:35.861Z,32.10
2018-07-20T15:31:38.445Z,32.40
2018-07-20T15:36:40.949Z,32.80
2018-07-20T15:41:43.477Z,33.20
2018-07-20T15:46:46.153Z,33.40
2018-07-20T15:56:51.085Z,33.00
2018-07-20T16:01:53.817Z,32.80
2018-07-20T16:06:56.552Z,33.00
2018-07-20T16:11:59.061Z,33.00
2018-07-20T16:17:01.614Z,33.00
2018-07-20T16:22:04.145Z,33.20
2018-07-20T16:27:06.619Z,33.10
2018-07-20T16:32:09.116Z,33.80
2018-07-20T16:37:11.626Z,34.20
2018-07-20T16:42:14.113Z,34.10
2018-07-20T16:47:16.683Z,34.60
2018-07-20T16:52:19.130Z,34.40
2018-07-20T16:57:22.403Z,34.40
2018-07-20T17:02:24.886Z,34.40
2018-07-20T17:07:27.389Z,34.40
2018-07-20T17:12:29.878Z,34.60
2018-07-20T17:17:32.996Z,35.10
2018-07-20T17:22:35.511Z,35.80
2018-07-20T17:27:38.017Z,36.40
2018-07-20T17:32:40.538Z,36.30
2018-07-20T17:37:43.033Z,36.30
2018-07-20T17:42:45.558Z,36.90
2018-07-20T17:47:48.037Z,37.30
2018-07-20T17:52:50.536Z,37.30
2018-07-20T17:57:53.029Z,37.60
2018-07-20T18:02:55.527Z,37.90
2018-07-20T18:07:58.008Z,38.80
2018-07-20T18:13:00.525Z,38.20
2018-07-20T18:18:03.012Z,38.90
2018-07-20T18:23:05.510Z,39.30
2018-07-20T18:28:08.041Z,40.10
2018-07-20T18:33:10.534Z,40.50
2018-07-20T18:38:13.065Z,40.60
2018-07-20T18:43:15.576Z,41.50
2018-07-20T18:48:18.062Z,41.60
2018-07-20T18:53:20.561Z,41.90
2018-07-20T18:58:23.049Z,42.60
2018-07-20T19:03:25.540Z,43.00
2018-07-20T19:08:28.042Z,43.30
2018-07-20T19:13:30.578Z,44.20
2018-07-20T19:18:33.033Z,44.80
2018-07-20T19:23:36.373Z,45.30
2018-07-20T19:28:38.818Z,45.20
2018-07-20T19:33:41.330Z,45.30
2018-07-20T19:38:43.809Z,45.70
2018-07-20T19:43:48.066Z,46.00
2018-07-20T19:48:50.548Z,45.90
2018-07-20T19:53:53.044Z,46.40
2018-07-20T19:58:55.638Z,47.40
2018-07-20T20:03:58.057Z,47.10
2018-07-20T20:09:00.589Z,47.30
2018-07-20T20:14:03.089Z,47.80
2018-07-20T20:19:05.585Z,48.10
2018-07-20T20:24:08.077Z,48.60
2018-07-20T20:29:11.353Z,49.20
2018-07-20T20:34:13.849Z,49.70
2018-07-20T20:39:16.355Z,49.50
2018-07-20T20:44:19.123Z,49.80
2018-07-20T20:49:21.608Z,49.90
2018-07-20T20:54:24.131Z,50.10
2018-07-20T20:59:26.626Z,50.50
2018-07-20T21:04:29.165Z,50.60
2018-07-20T21:09:31.680Z,50.70
2018-07-20T21:14:34.943Z,50.60
2018-07-20T21:19:37.484Z,50.60
2018-07-20T21:24:39.937Z,51.00
2018-07-20T21:29:42.695Z,51.50
2018-07-20T21:34:45.976Z,51.60
2018-07-20T21:39:48.471Z,51.60
2018-07-20T21:44:50.960Z,51.60
2018-07-20T21:49:53.454Z,51.50
2018-07-20T21:54:56.002Z,51.50
2018-07-20T21:59:58.481Z,51.80
2018-07-20T22:05:00.963Z,52.00
2018-07-20T22:10:03.457Z,52.20
2018-07-20T22:15:05.972Z,52.40
2018-07-20T22:20:08.480Z,52.60
2018-07-20T22:25:11.001Z,52.70
2018-07-20T22:30:13.493Z,53.20
2018-07-20T22:35:16.752Z,53.20
2018-07-20T22:40:19.278Z,53.70
2018-07-20T22:45:21.766Z,53.40
2018-07-20T22:50:24.280Z,53.50
2018-07-20T22:55:26.771Z,54.00
2018-07-20T23:00:29.309Z,53.60
2018-07-20T23:05:31.798Z,53.30
2018-07-20T23:10:34.288Z,53.20
2018-07-20T23:15:36.765Z,53.20
2018-07-20T23:20:39.284Z,53.30
2018-07-20T23:25:41.750Z,53.40
2018-07-20T23:30:44.241Z,53.60
2018-07-20T23:35:46.737Z,53.70
2018-07-20T23:40:49.228Z,53.90
2018-07-20T23:45:51.724Z,54.50
2018-07-20T23:50:54.214Z,54.60
2018-07-20T23:55:56.709Z,55.10
